createdAt,value
2019-03-20T00:01:14.400Z,5.55
2019-03-20T00:03:45.468Z,5.00
2019-03-20T00:06:16.438Z,6.25
2019-03-20T00:08:47.401Z,5.85
2019-03-20T00:11:18.492Z,4.90
2019-03-20T00:13:49.509Z,5.37
2019-03-20T00:16:20.500Z,5.35
2019-03-20T00:18:51.609Z,5.90
2019-03-20T00:21:22.580Z,7.62
2019-03-20T00:23:53.528Z,5.92
2019-03-20T00:26:24.589Z,6.00
2019-03-20T00:28:56.432Z,5.90
2019-03-20T00:31:27.450Z,5.30
2019-03-20T00:33:58.411Z,6.62
2019-03-20T00:36:29.385Z,6.12
2019-03-20T00:39:00.330Z,4.67
2019-03-20T00:41:31.548Z,5.62
2019-03-20T00:44:02.563Z,5.55
2019-03-20T00:46:33.548Z,5.67
2019-03-20T00:49:04.485Z,5.53
2019-03-20T00:51:36.467Z,6.05
2019-03-20T00:54:07.431Z,6.83
2019-03-20T00:56:38.373Z,5.78
2019-03-20T00:59:09.345Z,4.97
2019-03-20T01:01:41.280Z,7.05
2019-03-20T01:04:12.249Z,7.05
2019-03-20T01:06:43.179Z,5.47
2019-03-20T01:09:14.146Z,7.55
2019-03-20T01:11:45.078Z,7.55
2019-03-20T01:14:16.048Z,6.50
2019-03-20T01:16:46.989Z,6.80
2019-03-20T01:19:18.987Z,6.53
2019-03-20T01:21:49.937Z,6.17
2019-03-20T01:24:20.935Z,6.42
2019-03-20T01:26:51.874Z,6.83
2019-03-20T01:29:22.848Z,6.00
2019-03-20T01:31:54.876Z,8.83
2019-03-20T01:34:25.849Z,7.70
2019-03-20T01:36:56.801Z,6.53
2019-03-20T01:39:27.771Z,5.65
2019-03-20T01:41:58.738Z,5.83
2019-03-20T01:44:29.683Z,6.45
2019-03-20T01:47:00.669Z,6.47
2019-03-20T01:49:32.747Z,6.35
2019-03-20T01:52:03.720Z,6.92
2019-03-20T01:54:34.660Z,5.22
2019-03-20T01:57:05.640Z,6.10
2019-03-20T01:59:36.585Z,5.30
2019-03-20T02:02:07.560Z,6.80
2019-03-20T02:04:38.500Z,6.33
2019-03-20T02:07:09.497Z,6.12
2019-03-20T02:09:40.487Z,6.00
2019-03-20T02:12:11.479Z,7.53
2019-03-20T02:14:42.415Z,5.53
2019-03-20T02:17:13.394Z,7.00
2019-03-20T02:19:44.342Z,6.00
2019-03-20T02:22:15.347Z,6.08
2019-03-20T02:24:46.300Z,5.97
2019-03-20T02:27:17.286Z,5.95
2019-03-20T02:29:48.235Z,7.22
2019-03-20T02:32:19.187Z,6.53
2019-03-20T02:34:50.184Z,6.72
2019-03-20T02:37:21.291Z,6.53
2019-03-20T02:39:52.277Z,6.60
2019-03-20T02:42:23.242Z,6.53
2019-03-20T02:44:54.259Z,7.47
2019-03-20T02:47:25.294Z,7.25
2019-03-20T02:49:56.335Z,8.15
2019-03-20T02:52:27.363Z,7.67
2019-03-20T02:54:58.374Z,7.03
2019-03-20T02:57:29.383Z,7.42
2019-03-20T03:00:01.973Z,6.90
2019-03-20T03:02:33.367Z,6.83
2019-03-20T03:05:07.354Z,7.08
2019-03-20T03:07:38.446Z,6.62
2019-03-20T03:10:15.731Z,7.45
2019-03-20T03:12:46.864Z,7.90
2019-03-20T03:15:18.107Z,8.63
2019-03-20T03:17:49.248Z,8.25
2019-03-20T03:20:20.228Z,6.55
2019-03-20T03:22:51.178Z,7.30
2019-03-20T03:25:22.166Z,7.67
2019-03-20T03:27:53.153Z,8.58
2019-03-20T03:30:24.066Z,9.25
2019-03-20T03:32:55.147Z,9.00
2019-03-20T03:35:26.252Z,7.50
2019-03-20T03:37:57.238Z,7.47
2019-03-20T03:40:28.181Z,7.90
2019-03-20T03:42:59.325Z,10.18
2019-03-20T03:45:30.285Z,7.08
2019-03-20T03:48:01.272Z,7.72
2019-03-20T03:50:32.223Z,8.98
2019-03-20T03:53:04.215Z,7.25
2019-03-20T03:55:35.156Z,7.47
2019-03-20T03:58:06.187Z,8.33
2019-03-20T04:00:37.201Z,7.92
2019-03-20T04:03:08.192Z,7.60
2019-03-20T04:05:39.350Z,8.45
2019-03-20T04:08:10.386Z,8.03
2019-03-20T04:10:41.345Z,8.33
2019-03-20T04:13:12.323Z,8.43
2019-03-20T04:15:43.378Z,7.75
2019-03-20T04:18:14.449Z,8.73
2019-03-20T04:20:45.415Z,8.95
2019-03-20T04:23:16.387Z,8.35
2019-03-20T04:25:47.363Z,8.20
2019-03-20T04:28:18.313Z,8.55
2019-03-20T04:30:49.325Z,10.25
2019-03-20T04:33:20.441Z,9.40
2019-03-20T04:35:51.436Z,8.83
2019-03-20T04:38:22.380Z,9.10
2019-03-20T04:40:53.379Z,8.45
2019-03-20T04:43:24.330Z,8.75
2019-03-20T04:45:55.340Z,7.95
2019-03-20T04:48:27.338Z,8.93
2019-03-20T04:50:58.320Z,9.05
2019-03-20T04:53:29.277Z,8.78
2019-03-20T04:56:00.303Z,8.40
2019-03-20T04:58:31.257Z,8.33
2019-03-20T05:01:02.235Z,8.25
2019-03-20T05:03:33.216Z,7.70
2019-03-20T05:06:04.257Z,8.18
2019-03-20T05:08:35.238Z,7.47
2019-03-20T05:11:06.188Z,7.85
2019-03-20T05:13:37.174Z,6.80
2019-03-20T05:16:08.122Z,7.70
2019-03-20T05:18:39.104Z,9.43
2019-03-20T05:21:10.061Z,7.78
2019-03-20T05:23:41.071Z,7.90
2019-03-20T05:26:12.032Z,7.55
2019-03-20T05:28:43.023Z,7.90
2019-03-20T05:31:13.970Z,8.20
2019-03-20T05:33:44.879Z,7.90
2019-03-20T05:36:15.841Z,8.20
2019-03-20T05:38:46.831Z,7.05
2019-03-20T05:41:17.780Z,7.62
2019-03-20T05:43:48.778Z,8.65
2019-03-20T05:46:19.726Z,9.00
2019-03-20T05:48:50.811Z,7.72
2019-03-20T05:51:21.791Z,7.60
2019-03-20T05:53:52.775Z,7.97
2019-03-20T05:56:23.754Z,7.22
2019-03-20T05:58:55.080Z,8.35
2019-03-20T06:01:26.066Z,8.03
2019-03-20T06:03:57.010Z,6.95
2019-03-20T06:06:27.991Z,8.63
2019-03-20T06:08:59.041Z,8.55
2019-03-20T06:11:30.024Z,9.28
2019-03-20T06:14:00.996Z,8.90
2019-03-20T06:16:31.977Z,9.30
2019-03-20T06:19:02.934Z,8.25
2019-03-20T06:21:33.920Z,8.50
2019-03-20T06:24:05.074Z,7.78
2019-03-20T06:26:36.061Z,8.15
2019-03-20T06:29:07.011Z,7.70
2019-03-20T06:31:38.138Z,7.85
2019-03-20T06:34:09.111Z,7.70
2019-03-20T06:36:40.111Z,18.42
2019-03-20T06:39:11.053Z,20.57
2019-03-20T06:41:42.040Z,10.05
2019-03-20T06:44:13.031Z,10.10
2019-03-20T06:46:43.980Z,9.80
2019-03-20T06:49:14.959Z,12.60
2019-03-20T06:51:46.015Z,11.70
2019-03-20T06:54:17.005Z,11.10
2019-03-20T06:56:47.967Z,11.60
2019-03-20T06:59:33.873Z,11.05
2019-03-20T07:02:06.630Z,12.68
2019-03-20T07:04:47.963Z,11.78
2019-03-20T07:07:29.508Z,12.47
2019-03-20T07:10:24.863Z,13.40
2019-03-20T07:12:55.914Z,13.62
2019-03-20T07:15:26.899Z,14.23
2019-03-20T07:17:58.145Z,14.50
2019-03-20T07:20:29.117Z,11.45
2019-03-20T07:23:00.063Z,9.18
2019-03-20T07:25:34.213Z,9.45
2019-03-20T07:28:05.270Z,9.28
2019-03-20T07:30:36.239Z,8.10
2019-03-20T07:33:07.171Z,8.53
2019-03-20T07:35:38.139Z,7.28
2019-03-20T07:38:09.100Z,8.65
2019-03-20T07:40:40.122Z,7.35
2019-03-20T07:43:11.051Z,7.42
2019-03-20T07:45:42.015Z,8.05
2019-03-20T07:48:21.473Z,6.78
2019-03-20T07:50:45.664Z,7.58
2019-03-20T07:53:16.621Z,6.58
2019-03-20T07:55:47.591Z,7.53
2019-03-20T07:58:18.559Z,6.60
2019-03-20T08:00:49.493Z,6.47
2019-03-20T08:03:20.464Z,7.25
2019-03-20T08:05:51.493Z,7.87
2019-03-20T08:08:22.464Z,8.60
2019-03-20T08:10:54.397Z,7.22
2019-03-20T08:13:25.375Z,8.38
2019-03-20T08:15:56.309Z,6.08
2019-03-20T08:18:27.282Z,5.78
2019-03-20T08:20:58.220Z,5.95
2019-03-20T08:23:29.194Z,7.25
2019-03-20T08:26:00.131Z,7.40
2019-03-20T08:28:31.115Z,7.72
2019-03-20T08:31:02.100Z,8.10
2019-03-20T08:33:33.062Z,7.80
2019-03-20T08:36:04.004Z,7.37
2019-03-20T08:38:34.966Z,7.12
2019-03-20T08:41:05.997Z,6.53
2019-03-20T08:43:37.119Z,6.50
2019-03-20T08:46:08.261Z,6.20
2019-03-20T08:48:39.399Z,5.25
2019-03-20T08:51:10.442Z,5.12
2019-03-20T08:53:41.579Z,4.90
2019-03-20T08:56:12.525Z,5.37
2019-03-20T08:58:43.561Z,6.50
2019-03-20T09:01:14.601Z,6.20
2019-03-20T09:03:45.540Z,5.30
2019-03-20T09:06:16.561Z,4.90
2019-03-20T09:08:47.502Z,5.40
2019-03-20T09:11:18.475Z,5.47
2019-03-20T09:13:49.507Z,4.87
2019-03-20T09:16:20.636Z,4.00
2019-03-20T09:18:51.553Z,4.03
2019-03-20T09:21:22.514Z,4.10
2019-03-20T09:23:53.442Z,3.10
2019-03-20T09:26:24.409Z,2.30
2019-03-20T09:28:55.408Z,2.70
2019-03-20T09:31:26.470Z,2.70
2019-03-20T09:33:57.524Z,2.90
2019-03-20T09:36:28.595Z,2.75
2019-03-20T09:38:59.559Z,2.90
2019-03-20T09:41:30.502Z,2.98
2019-03-20T09:44:01.458Z,2.77
2019-03-20T09:46:32.390Z,2.40
2019-03-20T09:49:03.368Z,2.83
2019-03-20T09:51:35.073Z,2.10
2019-03-20T09:54:06.031Z,2.80
2019-03-20T09:56:36.968Z,3.05
2019-03-20T09:59:07.926Z,2.92
2019-03-20T10:01:38.858Z,2.60
2019-03-20T10:04:09.862Z,3.27
2019-03-20T10:06:40.925Z,2.83
2019-03-20T10:09:12.037Z,3.22
2019-03-20T10:11:43.107Z,2.87
2019-03-20T10:14:14.246Z,2.70
2019-03-20T10:16:46.714Z,2.72
2019-03-20T10:19:17.771Z,2.42
2019-03-20T10:21:48.796Z,2.95
2019-03-20T10:24:19.977Z,2.25
2019-03-20T10:26:51.014Z,3.30
2019-03-20T10:29:21.962Z,2.60
2019-03-20T10:31:52.939Z,2.52
2019-03-20T10:34:23.884Z,2.65
2019-03-20T10:36:54.945Z,3.05
2019-03-20T10:39:26.084Z,3.20
2019-03-20T10:41:57.227Z,3.55
2019-03-20T10:44:28.370Z,3.85
2019-03-20T10:46:59.534Z,2.92
2019-03-20T10:49:30.662Z,3.15
2019-03-20T10:52:01.800Z,2.72
2019-03-20T10:54:33.046Z,3.25
2019-03-20T10:57:04.191Z,3.70
2019-03-20T10:59:35.334Z,2.58
2019-03-20T11:02:06.526Z,2.77
2019-03-20T11:04:37.610Z,2.83
2019-03-20T11:07:08.678Z,4.55
2019-03-20T11:09:39.956Z,4.75
2019-03-20T11:12:11.037Z,4.00
2019-03-20T11:14:42.078Z,3.90
2019-03-20T11:17:13.231Z,4.00
2019-03-20T11:19:44.508Z,3.47
2019-03-20T11:22:19.074Z,2.80
2019-03-20T11:24:49.928Z,2.97
2019-03-20T11:27:21.067Z,3.90
2019-03-20T11:29:54.360Z,3.80
2019-03-20T11:32:25.447Z,3.90
2019-03-20T11:34:56.644Z,2.73
2019-03-20T11:37:27.686Z,2.80
2019-03-20T11:39:59.855Z,3.43
2019-03-20T11:42:30.992Z,4.03
2019-03-20T11:45:02.067Z,3.73
2019-03-20T11:47:33.176Z,3.33
2019-03-20T11:50:06.368Z,3.23
2019-03-20T11:52:37.408Z,2.90
2019-03-20T11:55:08.654Z,4.40
2019-03-20T11:57:39.809Z,4.33
2019-03-20T12:00:19.963Z,3.80
2019-03-20T12:02:51.090Z,4.12
2019-03-20T12:05:22.239Z,3.72
2019-03-20T12:07:53.374Z,4.45
2019-03-20T12:10:32.708Z,5.37
2019-03-20T12:13:03.831Z,3.92
2019-03-20T12:15:34.994Z,3.95
2019-03-20T12:18:06.342Z,3.75
2019-03-20T12:20:37.485Z,3.57
2019-03-20T12:23:08.624Z,4.07
2019-03-20T12:25:42.702Z,3.53
2019-03-20T12:28:13.884Z,2.93
2019-03-20T12:30:44.963Z,3.67
2019-03-20T12:33:16.171Z,3.33
2019-03-20T12:35:48.530Z,3.63
2019-03-20T12:38:19.678Z,4.00
2019-03-20T12:40:50.719Z,5.47
2019-03-20T12:43:21.879Z,3.60
2019-03-20T12:45:53.004Z,3.10
2019-03-20T12:48:24.146Z,2.80
2019-03-20T12:50:55.289Z,4.22
2019-03-20T12:53:35.954Z,3.67
2019-03-20T12:56:07.302Z,4.00
2019-03-20T12:58:38.341Z,3.27
2019-03-20T13:01:09.486Z,3.23
2019-03-20T13:03:40.627Z,2.60
2019-03-20T13:06:11.767Z,3.30
2019-03-20T13:08:42.809Z,3.70
2019-03-20T13:11:13.849Z,3.80
2019-03-20T13:13:44.888Z,3.23
2019-03-20T13:16:16.958Z,3.67
2019-03-20T13:18:49.037Z,3.37
2019-03-20T13:21:20.163Z,3.23
2019-03-20T13:23:51.312Z,3.47
2019-03-20T13:26:22.449Z,4.00
2019-03-20T13:28:53.592Z,3.13
2019-03-20T13:31:25.362Z,3.37
2019-03-20T13:33:56.487Z,3.47
2019-03-20T13:36:27.535Z,3.07
2019-03-20T13:38:58.707Z,2.93
2019-03-20T13:41:30.846Z,3.87
2019-03-20T13:44:01.982Z,3.00
2019-03-20T13:46:34.179Z,3.87
2019-03-20T13:49:05.294Z,3.70
2019-03-20T13:51:36.434Z,4.10
2019-03-20T13:54:09.020Z,3.90
2019-03-20T13:56:45.347Z,5.40
2019-03-20T13:59:16.520Z,3.70
2019-03-20T14:01:47.555Z,3.90
2019-03-20T14:04:18.702Z,5.40
2019-03-20T14:06:49.839Z,3.60
2019-03-20T14:09:20.982Z,6.43
2019-03-20T14:11:52.157Z,3.57
2019-03-20T14:14:23.264Z,4.13
2019-03-20T14:16:54.305Z,3.83
2019-03-20T14:19:25.348Z,3.03
2019-03-20T14:21:56.390Z,4.40
2019-03-20T14:24:27.528Z,3.03
2019-03-20T14:26:58.567Z,3.60
2019-03-20T14:29:29.609Z,3.53
2019-03-20T14:32:00.749Z,24.57
2019-03-20T14:34:31.791Z,3.70
2019-03-20T14:37:02.770Z,5.97
2019-03-20T14:39:33.871Z,3.33
2019-03-20T14:42:04.914Z,3.20
2019-03-20T14:44:36.062Z,3.07
2019-03-20T14:47:07.214Z,3.90
2019-03-20T14:49:38.338Z,4.20
2019-03-20T14:52:09.481Z,3.07
2019-03-20T14:54:44.473Z,3.93
2019-03-20T14:57:16.989Z,3.70
2019-03-20T14:59:48.130Z,3.40
2019-03-20T15:02:19.067Z,2.77
2019-03-20T15:04:50.104Z,3.13
2019-03-20T15:07:21.148Z,3.20
2019-03-20T15:09:52.286Z,3.73
2019-03-20T15:12:23.328Z,3.13
2019-03-20T15:14:54.469Z,4.00
2019-03-20T15:17:25.617Z,3.90
2019-03-20T15:19:56.758Z,3.60
2019-03-20T15:22:28.003Z,3.53
2019-03-20T15:24:59.141Z,3.40
2019-03-20T15:27:30.181Z,4.27
2019-03-20T15:30:01.325Z,2.83
2019-03-20T15:32:32.570Z,3.77
2019-03-20T15:35:03.611Z,3.23
2019-03-20T15:37:34.752Z,4.00
2019-03-20T15:40:14.180Z,4.43
2019-03-20T15:42:45.330Z,4.57
2019-03-20T15:45:18.151Z,3.30
2019-03-20T15:47:49.259Z,3.50
2019-03-20T15:50:25.728Z,4.07
2019-03-20T15:52:56.867Z,3.50
2019-03-20T15:55:34.225Z,3.90
2019-03-20T15:58:05.395Z,3.83
2019-03-20T16:00:36.542Z,4.27
2019-03-20T16:03:18.232Z,3.67
2019-03-20T16:05:49.375Z,3.80
2019-03-20T16:08:20.819Z,3.73
2019-03-20T16:10:51.868Z,4.67
2019-03-20T16:13:23.005Z,5.87
2019-03-20T16:15:54.252Z,12.50
2019-03-20T16:18:25.409Z,14.73
2019-03-20T16:20:56.432Z,7.80
2019-03-20T16:23:27.632Z,5.00
2019-03-20T16:25:58.717Z,4.97
2019-03-20T16:28:30.984Z,4.50
2019-03-20T16:31:02.126Z,3.47
2019-03-20T16:33:34.296Z,4.60
2019-03-20T16:36:05.321Z,4.67
2019-03-20T16:38:36.528Z,4.40
2019-03-20T16:41:16.400Z,4.13
2019-03-20T16:43:40.601Z,4.57
2019-03-20T16:46:11.656Z,13.98
2019-03-20T16:48:42.784Z,8.35
2019-03-20T16:51:13.826Z,4.65
2019-03-20T16:53:44.966Z,4.60
2019-03-20T16:56:16.007Z,5.33
2019-03-20T16:58:47.152Z,5.00
2019-03-20T17:01:18.289Z,4.50
2019-03-20T17:03:49.335Z,4.90
2019-03-20T17:06:20.474Z,4.87
2019-03-20T17:08:51.621Z,26.30
2019-03-20T17:11:30.274Z,15.30
2019-03-20T17:13:55.378Z,17.87
2019-03-20T17:16:26.480Z,4.78
2019-03-20T17:18:57.619Z,8.90
2019-03-20T17:21:28.763Z,6.08
2019-03-20T17:23:59.931Z,5.03
2019-03-20T17:26:31.048Z,5.58
2019-03-20T17:29:08.890Z,5.75
2019-03-20T17:31:35.112Z,5.90
2019-03-20T17:34:07.268Z,4.53
2019-03-20T17:36:38.312Z,4.15
2019-03-20T17:39:10.551Z,5.87
2019-03-20T17:41:41.689Z,4.97
2019-03-20T17:44:12.870Z,4.83
2019-03-20T17:46:43.883Z,5.47
2019-03-20T17:49:15.016Z,4.87
2019-03-20T17:51:46.155Z,4.17
2019-03-20T17:54:17.323Z,4.17
2019-03-20T17:56:48.505Z,4.22
2019-03-20T17:59:20.810Z,5.25
2019-03-20T18:01:51.956Z,4.60
2019-03-20T18:04:23.098Z,4.70
2019-03-20T18:06:54.262Z,4.50
2019-03-20T18:09:25.381Z,3.72
2019-03-20T18:11:56.522Z,5.17
2019-03-20T18:14:27.563Z,3.55
2019-03-20T18:16:58.726Z,4.17
2019-03-20T18:19:30.871Z,4.37
2019-03-20T18:22:02.133Z,5.08
2019-03-20T18:24:33.260Z,4.72
2019-03-20T18:27:04.505Z,4.70
2019-03-20T18:29:35.645Z,5.20
2019-03-20T18:32:06.671Z,5.15
2019-03-20T18:34:37.871Z,4.70
2019-03-20T18:37:08.969Z,5.25
2019-03-20T18:39:41.085Z,32.83
2019-03-20T18:42:13.200Z,6.90
2019-03-20T18:44:44.349Z,4.87
2019-03-20T18:47:15.363Z,5.60
2019-03-20T18:49:46.439Z,5.67
2019-03-20T18:52:17.458Z,5.12
2019-03-20T18:54:48.394Z,5.58
2019-03-20T18:57:22.318Z,5.15
2019-03-20T18:59:53.271Z,6.60
2019-03-20T19:02:24.318Z,5.70
2019-03-20T19:04:55.258Z,7.12
2019-03-20T19:07:26.314Z,9.43
2019-03-20T19:09:57.598Z,7.70
2019-03-20T19:12:28.538Z,11.70
2019-03-20T19:14:59.541Z,9.33
2019-03-20T19:17:30.490Z,10.78
2019-03-20T19:20:01.523Z,22.48
2019-03-20T19:22:33.103Z,18.42
2019-03-20T19:25:05.406Z,15.72
2019-03-20T19:27:37.360Z,11.88
2019-03-20T19:30:17.844Z,15.20
2019-03-20T19:32:48.975Z,15.05
2019-03-20T19:35:20.039Z,19.95
2019-03-20T19:37:51.011Z,17.30
2019-03-20T19:40:23.114Z,18.90
2019-03-20T19:42:54.097Z,19.62
2019-03-20T19:45:25.073Z,17.07
2019-03-20T19:47:56.143Z,19.02
2019-03-20T19:50:27.141Z,18.60
2019-03-20T19:52:58.124Z,20.60
2019-03-20T19:55:29.114Z,21.73
2019-03-20T19:58:00.154Z,20.80
2019-03-20T20:00:31.091Z,21.77
2019-03-20T20:03:02.078Z,19.62
2019-03-20T20:05:33.052Z,14.40
2019-03-20T20:08:04.083Z,15.75
2019-03-20T20:10:35.185Z,17.07
2019-03-20T20:13:06.184Z,16.17
2019-03-20T20:15:37.250Z,16.15
2019-03-20T20:18:08.199Z,16.35
2019-03-20T20:20:40.856Z,16.80
2019-03-20T20:23:11.850Z,16.45
2019-03-20T20:25:43.779Z,15.20
2019-03-20T20:28:14.717Z,14.23
2019-03-20T20:30:45.702Z,15.45
2019-03-20T20:33:16.651Z,17.57
2019-03-20T20:35:47.626Z,16.70
2019-03-20T20:38:18.593Z,13.53
2019-03-20T20:40:49.638Z,14.83
2019-03-20T20:43:20.593Z,11.10
2019-03-20T20:45:51.563Z,9.60
2019-03-20T20:48:22.523Z,8.58
2019-03-20T20:50:53.495Z,7.70
2019-03-20T20:53:24.443Z,8.65
2019-03-20T20:55:55.428Z,7.85
2019-03-20T20:58:26.377Z,10.23
2019-03-20T21:00:57.372Z,9.80
2019-03-20T21:03:28.345Z,9.00
2019-03-20T21:05:59.389Z,10.48
2019-03-20T21:08:30.361Z,11.18
2019-03-20T21:11:01.513Z,11.90
2019-03-20T21:13:32.659Z,8.30
2019-03-20T21:16:03.703Z,9.90
2019-03-20T21:18:51.032Z,9.50
2019-03-20T21:21:22.160Z,9.43
2019-03-20T21:24:23.799Z,9.05
2019-03-20T21:27:07.517Z,10.20
2019-03-20T21:30:18.965Z,11.88
2019-03-20T21:33:28.998Z,17.35
2019-03-20T21:36:25.675Z,17.27
2019-03-20T21:38:56.644Z,17.48
2019-03-20T21:41:50.113Z,16.73
2019-03-20T21:45:12.426Z,15.45
2019-03-20T21:47:43.405Z,18.40
2019-03-20T21:50:55.192Z,20.50
2019-03-20T21:53:54.086Z,20.35
2019-03-20T21:56:56.449Z,20.00
2019-03-20T21:59:59.325Z,19.92
2019-03-20T22:02:46.558Z,16.48
2019-03-20T22:05:40.295Z,17.00
2019-03-20T22:08:11.285Z,17.42
2019-03-20T22:11:17.902Z,14.30
2019-03-20T22:14:02.356Z,15.60
2019-03-20T22:16:57.204Z,13.10
2019-03-20T22:19:59.940Z,12.15
2019-03-20T22:22:47.146Z,11.73
2019-03-20T22:25:46.918Z,13.50
2019-03-20T22:28:47.926Z,13.53
2019-03-20T22:31:19.111Z,14.40
2019-03-20T22:34:28.488Z,13.53
2019-03-20T22:36:59.527Z,10.43
2019-03-20T22:39:47.117Z,10.25
2019-03-20T22:42:25.188Z,10.18
2019-03-20T22:45:09.245Z,10.72
2019-03-20T22:48:10.848Z,11.18
2019-03-20T22:51:16.515Z,10.80
2019-03-20T22:54:43.550Z,11.60
2019-03-20T22:57:37.089Z,11.00
2019-03-20T23:00:11.873Z,12.70
2019-03-20T23:02:54.219Z,11.95
2019-03-20T23:05:25.249Z,11.15
2019-03-20T23:07:56.259Z,10.95
2019-03-20T23:10:27.217Z,10.00
2019-03-20T23:12:58.539Z,9.80
2019-03-20T23:15:29.515Z,10.23
2019-03-20T23:18:00.545Z,9.83
2019-03-20T23:20:31.534Z,10.78
2019-03-20T23:23:02.562Z,10.00
2019-03-20T23:25:33.580Z,11.70
2019-03-20T23:28:04.569Z,11.55
2019-03-20T23:30:36.158Z,9.65
2019-03-20T23:33:07.215Z,10.05
2019-03-20T23:35:38.198Z,11.55
2019-03-20T23:38:09.156Z,11.15
2019-03-20T23:40:40.164Z,11.73
2019-03-20T23:43:15.138Z,11.55
2019-03-20T23:45:46.203Z,10.23
2019-03-20T23:48:40.239Z,10.30
2019-03-20T23:51:26.152Z,8.60
2019-03-20T23:53:57.722Z,9.95
2019-03-20T23:56:33.107Z,8.83
2019-03-20T23:59:04.863Z,8.25
